sensor_id;sensor_type;location;lat;lon;timestamp;pressure;altitude;pressure_sealevel;temperature;humidity
42705;BME280;28342;42.594;23.414;2022-09-19T00:01:57;94596.72;;;7.23;75.90
42705;BME280;28342;42.594;23.414;2022-09-19T00:04:25;94602.72;;;7.28;76.33
42705;BME280;28342;42.594;23.414;2022-09-19T00:06:52;94576.41;;;7.23;76.26
42705;BME280;28342;42.594;23.414;2022-09-19T00:09:20;94587.53;;;7.20;75.82
42705;BME280;28342;42.594;23.414;2022-09-19T00:11:47;94579.22;;;7.08;76.45
42705;BME280;28342;42.594;23.414;2022-09-19T00:14:17;94585.84;;;7.05;76.43
42705;BME280;28342;42.594;23.414;2022-09-19T00:16:45;94570.03;;;7.05;76.84
42705;BME280;28342;42.594;23.414;2022-09-19T00:19:14;94581.22;;;7.16;75.73
42705;BME280;28342;42.594;23.414;2022-09-19T00:21:41;94567.66;;;7.04;75.69
42705;BME280;28342;42.594;23.414;2022-09-19T00:24:11;94562.53;;;6.94;77.06
42705;BME280;28342;42.594;23.414;2022-09-19T00:26:56;94575.06;;;7.02;77.05
42705;BME280;28342;42.594;23.414;2022-09-19T00:29:23;94581.38;;;7.06;77.07
42705;BME280;28342;42.594;23.414;2022-09-19T00:31:48;94569.69;;;7.12;77.08
42705;BME280;28342;42.594;23.414;2022-09-19T00:34:16;94571.69;;;7.20;76.87
42705;BME280;28342;42.594;23.414;2022-09-19T00:36:42;94571.13;;;7.23;77.23
42705;BME280;28342;42.594;23.414;2022-09-19T00:39:09;94558.63;;;7.10;77.59
42705;BME280;28342;42.594;23.414;2022-09-19T00:41:35;94554.34;;;7.14;77.37
42705;BME280;28342;42.594;23.414;2022-09-19T00:46:50;94561.38;;;7.00;76.77
42705;BME280;28342;42.594;23.414;2022-09-19T00:49:18;94574.09;;;7.16;76.97
42705;BME280;28342;42.594;23.414;2022-09-19T00:51:49;94568.09;;;7.11;77.02
42705;BME280;28342;42.594;23.414;2022-09-19T00:54:19;94558.75;;;7.00;77.22
42705;BME280;28342;42.594;23.414;2022-09-19T00:56:50;94562.94;;;7.01;77.49
42705;BME280;28342;42.594;23.414;2022-09-19T00:59:16;94572.81;;;7.14;77.31
42705;BME280;28342;42.594;23.414;2022-09-19T01:01:44;94564.47;;;7.07;76.92
42705;BME280;28342;42.594;23.414;2022-09-19T01:04:18;94582.78;;;7.17;76.78
42705;BME280;28342;42.594;23.414;2022-09-19T01:12:30;94570.47;;;7.12;75.10
42705;BME280;28342;42.594;23.414;2022-09-19T01:18:06;94572.91;;;6.85;75.38
42705;BME280;28342;42.594;23.414;2022-09-19T01:29:29;94567.06;;;6.64;75.39
42705;BME280;28342;42.594;23.414;2022-09-19T01:31:59;94570.59;;;6.54;75.23
42705;BME280;28342;42.594;23.414;2022-09-19T01:34:39;94558.91;;;6.37;75.54
42705;BME280;28342;42.594;23.414;2022-09-19T01:37:19;94569.38;;;6.47;76.60
42705;BME280;28342;42.594;23.414;2022-09-19T01:39:50;94547.81;;;6.40;77.01
42705;BME280;28342;42.594;23.414;2022-09-19T01:42:20;94554.00;;;6.30;75.79
42705;BME280;28342;42.594;23.414;2022-09-19T01:44:46;94557.34;;;6.36;76.40
42705;BME280;28342;42.594;23.414;2022-09-19T01:49:57;94563.25;;;6.22;76.62
42705;BME280;28342;42.594;23.414;2022-09-19T01:53:01;94555.97;;;6.14;76.61
42705;BME280;28342;42.594;23.414;2022-09-19T01:58:22;94532.41;;;5.99;77.11
42705;BME280;28342;42.594;23.414;2022-09-19T02:03:35;94549.16;;;6.08;77.86
42705;BME280;28342;42.594;23.414;2022-09-19T02:06:10;94537.00;;;6.12;78.66
42705;BME280;28342;42.594;23.414;2022-09-19T02:11:14;94543.09;;;6.13;77.42
42705;BME280;28342;42.594;23.414;2022-09-19T02:13:43;94536.06;;;6.03;77.30
42705;BME280;28342;42.594;23.414;2022-09-19T02:16:18;94545.53;;;6.04;78.13
42705;BME280;28342;42.594;23.414;2022-09-19T02:18:53;94536.63;;;6.00;78.47
42705;BME280;28342;42.594;23.414;2022-09-19T02:21:29;94540.59;;;5.97;78.67
42705;BME280;28342;42.594;23.414;2022-09-19T02:23:57;94526.09;;;5.95;77.36
42705;BME280;28342;42.594;23.414;2022-09-19T02:26:31;94539.78;;;5.97;77.70
42705;BME280;28342;42.594;23.414;2022-09-19T02:28:58;94533.72;;;5.96;78.24
42705;BME280;28342;42.594;23.414;2022-09-19T02:31:25;94542.94;;;5.99;77.37
42705;BME280;28342;42.594;23.414;2022-09-19T02:33:54;94541.84;;;6.05;76.91
42705;BME280;28342;42.594;23.414;2022-09-19T02:36:32;94542.94;;;5.99;78.37
42705;BME280;28342;42.594;23.414;2022-09-19T02:42:09;94540.38;;;5.89;77.12
42705;BME280;28342;42.594;23.414;2022-09-19T02:47:25;94532.47;;;5.89;77.21
42705;BME280;28342;42.594;23.414;2022-09-19T02:50:10;94527.00;;;5.80;77.58
42705;BME280;28342;42.594;23.414;2022-09-19T02:52:38;94523.19;;;5.62;78.44
42705;BME280;28342;42.594;23.414;2022-09-19T02:55:11;94539.47;;;5.69;79.05
42705;BME280;28342;42.594;23.414;2022-09-19T02:57:47;94516.63;;;5.60;78.71
42705;BME280;28342;42.594;23.414;2022-09-19T03:00:15;94525.66;;;5.54;78.29
42705;BME280;28342;42.594;23.414;2022-09-19T03:03:08;94536.44;;;5.52;79.16
42705;BME280;28342;42.594;23.414;2022-09-19T03:05:55;94542.88;;;5.31;79.12
42705;BME280;28342;42.594;23.414;2022-09-19T03:08:22;94525.53;;;5.30;78.47
42705;BME280;28342;42.594;23.414;2022-09-19T03:10:52;94533.94;;;5.32;78.76
42705;BME280;28342;42.594;23.414;2022-09-19T03:13:21;94527.03;;;5.41;78.73
42705;BME280;28342;42.594;23.414;2022-09-19T03:15:57;94533.88;;;5.42;78.82
42705;BME280;28342;42.594;23.414;2022-09-19T03:18:26;94535.44;;;5.43;78.00
42705;BME280;28342;42.594;23.414;2022-09-19T03:20:55;94523.59;;;5.46;78.00
42705;BME280;28342;42.594;23.414;2022-09-19T03:23:28;94542.75;;;5.51;79.79
42705;BME280;28342;42.594;23.414;2022-09-19T03:25:56;94542.22;;;5.49;78.98
42705;BME280;28342;42.594;23.414;2022-09-19T03:28:21;94542.44;;;5.58;78.59
42705;BME280;28342;42.594;23.414;2022-09-19T03:30:48;94543.78;;;5.55;79.04
42705;BME280;28342;42.594;23.414;2022-09-19T03:33:14;94541.06;;;5.65;79.36
42705;BME280;28342;42.594;23.414;2022-09-19T03:35:44;94540.75;;;5.38;80.14
42705;BME280;28342;42.594;23.414;2022-09-19T03:38:13;94543.28;;;5.48;79.67
42705;BME280;28342;42.594;23.414;2022-09-19T03:40:39;94536.41;;;5.57;78.93
42705;BME280;28342;42.594;23.414;2022-09-19T03:43:05;94549.50;;;5.62;78.57
42705;BME280;28342;42.594;23.414;2022-09-19T03:45:31;94525.94;;;5.47;78.47
42705;BME280;28342;42.594;23.414;2022-09-19T03:47:56;94533.03;;;5.47;78.29
42705;BME280;28342;42.594;23.414;2022-09-19T03:50:22;94530.78;;;5.30;79.44
42705;BME280;28342;42.594;23.414;2022-09-19T03:52:49;94527.44;;;5.19;80.06
42705;BME280;28342;42.594;23.414;2022-09-19T03:55:15;94512.38;;;5.30;79.14
42705;BME280;28342;42.594;23.414;2022-09-19T03:57:40;94526.44;;;5.54;79.46
42705;BME280;28342;42.594;23.414;2022-09-19T04:00:07;94523.53;;;5.56;80.09
42705;BME280;28342;42.594;23.414;2022-09-19T04:02:33;94513.78;;;5.56;79.42
42705;BME280;28342;42.594;23.414;2022-09-19T04:04:58;94513.28;;;5.49;78.86
42705;BME280;28342;42.594;23.414;2022-09-19T04:07:24;94520.09;;;5.55;79.19
42705;BME280;28342;42.594;23.414;2022-09-19T04:09:52;94514.47;;;5.33;79.89
42705;BME280;28342;42.594;23.414;2022-09-19T04:12:20;94516.03;;;5.34;79.72
42705;BME280;28342;42.594;23.414;2022-09-19T04:14:46;94502.91;;;5.29;80.00
42705;BME280;28342;42.594;23.414;2022-09-19T04:17:11;94513.28;;;5.49;79.52
42705;BME280;28342;42.594;23.414;2022-09-19T04:19:39;94522.69;;;5.60;79.16
42705;BME280;28342;42.594;23.414;2022-09-19T04:22:04;94516.63;;;5.26;80.18
42705;BME280;28342;42.594;23.414;2022-09-19T04:24:30;94516.06;;;5.29;80.22
42705;BME280;28342;42.594;23.414;2022-09-19T04:26:55;94512.41;;;5.25;80.14
42705;BME280;28342;42.594;23.414;2022-09-19T04:29:25;94519.97;;;5.36;79.66
42705;BME280;28342;42.594;23.414;2022-09-19T04:31:53;94508.72;;;5.26;80.42
42705;BME280;28342;42.594;23.414;2022-09-19T04:34:19;94489.63;;;5.10;81.30
42705;BME280;28342;42.594;23.414;2022-09-19T04:36:45;94522.84;;;5.35;81.95
42705;BME280;28342;42.594;23.414;2022-09-19T04:39:13;94513.88;;;5.41;81.24
42705;BME280;28342;42.594;23.414;2022-09-19T04:41:39;94503.38;;;5.36;80.94
42705;BME280;28342;42.594;23.414;2022-09-19T04:44:05;94518.56;;;5.49;81.04
42705;BME280;28342;42.594;23.414;2022-09-19T04:46:32;94502.31;;;5.42;81.66
42705;BME280;28342;42.594;23.414;2022-09-19T04:48:58;94498.84;;;5.47;81.48
42705;BME280;28342;42.594;23.414;2022-09-19T04:51:25;94512.66;;;5.62;80.98
42705;BME280;28342;42.594;23.414;2022-09-19T04:53:51;94506.56;;;5.72;80.63
42705;BME280;28342;42.594;23.414;2022-09-19T04:56:17;94506.72;;;5.81;80.66
42705;BME280;28342;42.594;23.414;2022-09-19T04:58:44;94511.47;;;5.79;80.46
42705;BME280;28342;42.594;23.414;2022-09-19T05:01:09;94512.03;;;5.76;80.54
42705;BME280;28342;42.594;23.414;2022-09-19T05:03:36;94514.50;;;5.67;81.01
42705;BME280;28342;42.594;23.414;2022-09-19T05:06:03;94520.06;;;5.60;81.12
42705;BME280;28342;42.594;23.414;2022-09-19T05:08:32;94511.09;;;5.61;81.89
42705;BME280;28342;42.594;23.414;2022-09-19T05:11:03;94507.09;;;5.69;80.95
42705;BME280;28342;42.594;23.414;2022-09-19T05:13:30;94511.03;;;5.72;81.47
42705;BME280;28342;42.594;23.414;2022-09-19T05:15:58;94493.47;;;5.62;81.48
42705;BME280;28342;42.594;23.414;2022-09-19T05:18:25;94502.13;;;5.62;82.26
42705;BME280;28342;42.594;23.414;2022-09-19T05:20:51;94497.38;;;5.64;82.63
42705;BME280;28342;42.594;23.414;2022-09-19T05:23:18;94498.44;;;5.63;83.38
42705;BME280;28342;42.594;23.414;2022-09-19T05:25:44;94512.53;;;5.78;83.57
42705;BME280;28342;42.594;23.414;2022-09-19T05:28:10;94516.16;;;5.87;82.67
42705;BME280;28342;42.594;23.414;2022-09-19T05:30:45;94518.50;;;5.93;83.71
42705;BME280;28342;42.594;23.414;2022-09-19T05:33:10;94517.84;;;6.07;82.21
42705;BME280;28342;42.594;23.414;2022-09-19T05:35:37;94511.25;;;6.09;81.88
42705;BME280;28342;42.594;23.414;2022-09-19T05:38:03;94524.31;;;6.19;82.21
42705;BME280;28342;42.594;23.414;2022-09-19T05:40:29;94503.19;;;6.24;81.74
42705;BME280;28342;42.594;23.414;2022-09-19T05:42:54;94498.94;;;6.28;81.86
42705;BME280;28342;42.594;23.414;2022-09-19T05:45:25;94519.81;;;6.49;80.94
42705;BME280;28342;42.594;23.414;2022-09-19T05:47:51;94504.78;;;6.49;81.17
42705;BME280;28342;42.594;23.414;2022-09-19T05:50:16;94516.00;;;6.60;80.65
42705;BME280;28342;42.594;23.414;2022-09-19T05:52:42;94516.44;;;6.67;79.92
42705;BME280;28342;42.594;23.414;2022-09-19T05:55:27;94527.94;;;6.76;80.14
42705;BME280;28342;42.594;23.414;2022-09-19T05:57:55;94524.72;;;6.79;80.84
42705;BME280;28342;42.594;23.414;2022-09-19T06:00:26;94502.06;;;6.78;80.52
42705;BME280;28342;42.594;23.414;2022-09-19T06:05:18;94508.34;;;7.01;80.57
42705;BME280;28342;42.594;23.414;2022-09-19T06:07:43;94505.78;;;7.15;79.65
42705;BME280;28342;42.594;23.414;2022-09-19T06:10:08;94517.56;;;7.23;78.96
42705;BME280;28342;42.594;23.414;2022-09-19T06:12:34;94497.25;;;7.23;80.29
42705;BME280;28342;42.594;23.414;2022-09-19T06:14:59;94511.34;;;7.32;79.92
42705;BME280;28342;42.594;23.414;2022-09-19T06:17:25;94493.47;;;7.29;78.89
42705;BME280;28342;42.594;23.414;2022-09-19T06:19:52;94513.78;;;7.47;79.43
42705;BME280;28342;42.594;23.414;2022-09-19T06:22:18;94496.88;;;7.48;78.87
42705;BME280;28342;42.594;23.414;2022-09-19T06:24:43;94516.63;;;7.70;78.11
42705;BME280;28342;42.594;23.414;2022-09-19T06:27:08;94517.03;;;7.77;77.49
42705;BME280;28342;42.594;23.414;2022-09-19T06:29:34;94521.94;;;7.84;77.73
42705;BME280;28342;42.594;23.414;2022-09-19T06:32:01;94519.41;;;7.92;77.08
42705;BME280;28342;42.594;23.414;2022-09-19T06:34:27;94517.09;;;8.04;77.36
42705;BME280;28342;42.594;23.414;2022-09-19T06:36:52;94526.44;;;8.16;77.37
42705;BME280;28342;42.594;23.414;2022-09-19T06:39:18;94516.06;;;8.19;77.03
42705;BME280;28342;42.594;23.414;2022-09-19T06:41:43;94534.81;;;8.36;76.99
42705;BME280;28342;42.594;23.414;2022-09-19T06:44:11;94532.47;;;8.35;75.69
42705;BME280;28342;42.594;23.414;2022-09-19T06:46:36;94522.50;;;8.46;74.64
42705;BME280;28342;42.594;23.414;2022-09-19T06:49:02;94507.41;;;8.46;75.15
42705;BME280;28342;42.594;23.414;2022-09-19T06:51:28;94518.38;;;8.53;76.38
42705;BME280;28342;42.594;23.414;2022-09-19T06:53:54;94513.38;;;8.65;76.18
42705;BME280;28342;42.594;23.414;2022-09-19T06:56:19;94514.47;;;8.78;75.39
42705;BME280;28342;42.594;23.414;2022-09-19T06:58:45;94500.47;;;8.64;74.35
42705;BME280;28342;42.594;23.414;2022-09-19T07:01:10;94521.91;;;8.90;75.10
42705;BME280;28342;42.594;23.414;2022-09-19T07:03:36;94520.31;;;9.03;74.98
42705;BME280;28342;42.594;23.414;2022-09-19T07:06:06;94523.22;;;9.15;75.22
42705;BME280;28342;42.594;23.414;2022-09-19T07:08:32;94505.41;;;9.20;73.60
42705;BME280;28342;42.594;23.414;2022-09-19T07:10:58;94515.72;;;9.44;73.46
42705;BME280;28342;42.594;23.414;2022-09-19T07:13:23;94505.22;;;9.53;71.96
42705;BME280;28342;42.594;23.414;2022-09-19T07:15:49;94490.03;;;9.45;71.37
42705;BME280;28342;42.594;23.414;2022-09-19T07:18:14;94489.19;;;9.58;71.75
42705;BME280;28342;42.594;23.414;2022-09-19T07:20:40;94489.31;;;9.75;71.30
42705;BME280;28342;42.594;23.414;2022-09-19T07:23:11;94481.59;;;9.87;72.12
42705;BME280;28342;42.594;23.414;2022-09-19T07:25:39;94492.06;;;10.15;70.15
42705;BME280;28342;42.594;23.414;2022-09-19T07:28:08;94498.78;;;10.43;69.54
42705;BME280;28342;42.594;23.414;2022-09-19T07:30:34;94471.84;;;10.59;67.72
42705;BME280;28342;42.594;23.414;2022-09-19T07:33:02;94487.38;;;10.91;67.40
42705;BME280;28342;42.594;23.414;2022-09-19T07:35:30;94485.84;;;11.07;66.81
42705;BME280;28342;42.594;23.414;2022-09-19T07:37:57;94495.41;;;11.43;67.07
42705;BME280;28342;42.594;23.414;2022-09-19T07:40:23;94471.34;;;11.65;66.36
42705;BME280;28342;42.594;23.414;2022-09-19T07:42:49;94494.34;;;11.96;65.72
42705;BME280;28342;42.594;23.414;2022-09-19T07:45:16;94485.16;;;12.32;65.93
42705;BME280;28342;42.594;23.414;2022-09-19T07:47:46;94464.13;;;12.56;67.28
42705;BME280;28342;42.594;23.414;2022-09-19T07:50:14;94480.19;;;12.98;64.32
42705;BME280;28342;42.594;23.414;2022-09-19T07:52:45;94471.69;;;13.34;62.48
42705;BME280;28342;42.594;23.414;2022-09-19T07:55:14;94468.28;;;13.66;61.90
42705;BME280;28342;42.594;23.414;2022-09-19T07:57:49;94466.09;;;14.01;62.12
42705;BME280;28342;42.594;23.414;2022-09-19T08:00:15;94465.28;;;14.34;60.87
42705;BME280;28342;42.594;23.414;2022-09-19T08:02:41;94467.34;;;14.74;60.80
42705;BME280;28342;42.594;23.414;2022-09-19T08:05:06;94465.78;;;15.09;61.32
42705;BME280;28342;42.594;23.414;2022-09-19T08:07:32;94452.75;;;15.20;55.68
42705;BME280;28342;42.594;23.414;2022-09-19T08:09:57;94462.03;;;15.50;58.27
42705;BME280;28342;42.594;23.414;2022-09-19T08:12:22;94460.41;;;15.74;56.89
42705;BME280;28342;42.594;23.414;2022-09-19T08:14:48;94440.78;;;15.82;54.54
42705;BME280;28342;42.594;23.414;2022-09-19T08:17:14;94448.94;;;16.01;56.06
42705;BME280;28342;42.594;23.414;2022-09-19T08:19:39;94439.03;;;16.18;55.44
42705;BME280;28342;42.594;23.414;2022-09-19T08:22:05;94444.13;;;16.38;53.57
42705;BME280;28342;42.594;23.414;2022-09-19T08:24:31;94419.44;;;16.29;53.49
42705;BME280;28342;42.594;23.414;2022-09-19T08:26:56;94428.34;;;16.65;52.59
42705;BME280;28342;42.594;23.414;2022-09-19T08:29:24;94446.88;;;16.70;50.35
42705;BME280;28342;42.594;23.414;2022-09-19T08:31:51;94436.81;;;16.83;50.77
42705;BME280;28342;42.594;23.414;2022-09-19T08:34:17;94436.69;;;17.11;51.56
42705;BME280;28342;42.594;23.414;2022-09-19T08:36:43;94444.50;;;17.35;50.43
42705;BME280;28342;42.594;23.414;2022-09-19T08:39:08;94424.72;;;17.43;48.75
42705;BME280;28342;42.594;23.414;2022-09-19T08:47:13;94438.13;;;17.78;47.29
42705;BME280;28342;42.594;23.414;2022-09-19T08:49:45;94423.19;;;17.42;47.07
42705;BME280;28342;42.594;23.414;2022-09-19T08:52:33;94425.13;;;17.80;48.14
42705;BME280;28342;42.594;23.414;2022-09-19T08:55:00;94429.69;;;17.99;45.54
42705;BME280;28342;42.594;23.414;2022-09-19T08:57:38;94422.31;;;18.15;48.07
42705;BME280;28342;42.594;23.414;2022-09-19T09:00:20;94435.22;;;18.29;44.47
42705;BME280;28342;42.594;23.414;2022-09-19T09:05:20;94443.28;;;18.52;48.15
42705;BME280;28342;42.594;23.414;2022-09-19T09:07:56;94427.66;;;18.58;45.20
42705;BME280;28342;42.594;23.414;2022-09-19T09:10:47;94433.22;;;18.68;45.70
42705;BME280;28342;42.594;23.414;2022-09-19T09:18:59;94442.97;;;19.03;45.00
42705;BME280;28342;42.594;23.414;2022-09-19T09:21:46;94446.38;;;19.00;42.11
42705;BME280;28342;42.594;23.414;2022-09-19T09:24:20;94441.50;;;19.09;43.32
42705;BME280;28342;42.594;23.414;2022-09-19T09:26:49;94434.06;;;19.25;44.53
42705;BME280;28342;42.594;23.414;2022-09-19T09:32:00;94422.50;;;19.51;40.76
42705;BME280;28342;42.594;23.414;2022-09-19T09:34:37;94426.19;;;19.66;39.92
42705;BME280;28342;42.594;23.414;2022-09-19T09:37:22;94415.06;;;19.41;37.82
42705;BME280;28342;42.594;23.414;2022-09-19T09:39:56;94413.34;;;19.56;39.24
42705;BME280;28342;42.594;23.414;2022-09-19T09:42:49;94398.16;;;19.70;39.38
42705;BME280;28342;42.594;23.414;2022-09-19T09:45:29;94397.63;;;19.91;39.71
42705;BME280;28342;42.594;23.414;2022-09-19T09:56:34;94370.28;;;19.89;36.98
42705;BME280;28342;42.594;23.414;2022-09-19T09:59:28;94375.75;;;19.96;40.06
42705;BME280;28342;42.594;23.414;2022-09-19T10:02:30;94374.09;;;20.22;36.87
42705;BME280;28342;42.594;23.414;2022-09-19T10:05:31;94371.06;;;20.30;36.86
42705;BME280;28342;42.594;23.414;2022-09-19T10:11:06;94372.97;;;20.71;37.57
42705;BME280;28342;42.594;23.414;2022-09-19T10:13:37;94357.19;;;20.69;36.28
42705;BME280;28342;42.594;23.414;2022-09-19T10:16:06;94356.31;;;20.54;37.32
42705;BME280;28342;42.594;23.414;2022-09-19T10:18:53;94348.53;;;20.49;38.30
42705;BME280;28342;42.594;23.414;2022-09-19T10:21:21;94340.94;;;20.58;37.66
42705;BME280;28342;42.594;23.414;2022-09-19T10:23:47;94345.56;;;20.62;37.04
42705;BME280;28342;42.594;23.414;2022-09-19T10:26:15;94338.59;;;20.53;37.82
42705;BME280;28342;42.594;23.414;2022-09-19T10:28:48;94344.78;;;20.57;36.06
42705;BME280;28342;42.594;23.414;2022-09-19T10:31:35;94343.38;;;20.30;35.50
42705;BME280;28342;42.594;23.414;2022-09-19T10:34:02;94345.19;;;20.19;36.39
42705;BME280;28342;42.594;23.414;2022-09-19T10:36:33;94341.56;;;20.00;36.65
42705;BME280;28342;42.594;23.414;2022-09-19T10:39:11;94339.53;;;19.90;37.29
42705;BME280;28342;42.594;23.414;2022-09-19T10:41:40;94329.44;;;19.80;36.17
42705;BME280;28342;42.594;23.414;2022-09-19T10:44:16;94310.97;;;19.79;37.16
42705;BME280;28342;42.594;23.414;2022-09-19T10:46:45;94315.66;;;19.85;37.71
42705;BME280;28342;42.594;23.414;2022-09-19T10:49:24;94310.53;;;19.73;36.68
42705;BME280;28342;42.594;23.414;2022-09-19T10:51:53;94298.56;;;19.67;37.34
42705;BME280;28342;42.594;23.414;2022-09-19T10:54:41;94301.69;;;19.73;37.31
42705;BME280;28342;42.594;23.414;2022-09-19T10:57:29;94298.16;;;19.65;37.29
42705;BME280;28342;42.594;23.414;2022-09-19T11:00:27;94286.16;;;19.59;37.84
42705;BME280;28342;42.594;23.414;2022-09-19T11:02:59;94286.59;;;19.61;37.01
42705;BME280;28342;42.594;23.414;2022-09-19T11:05:28;94284.50;;;19.47;36.78
42705;BME280;28342;42.594;23.414;2022-09-19T11:07:55;94277.28;;;19.55;38.79
42705;BME280;28342;42.594;23.414;2022-09-19T11:10:34;94280.00;;;19.58;37.27
42705;BME280;28342;42.594;23.414;2022-09-19T11:13:19;94266.63;;;19.62;38.18
42705;BME280;28342;42.594;23.414;2022-09-19T11:16:19;94268.53;;;19.61;37.39
42705;BME280;28342;42.594;23.414;2022-09-19T11:22:42;94247.44;;;19.67;36.57
42705;BME280;28342;42.594;23.414;2022-09-19T11:30:21;94255.53;;;19.70;36.25
42705;BME280;28342;42.594;23.414;2022-09-19T11:33:13;94249.13;;;19.82;37.73
42705;BME280;28342;42.594;23.414;2022-09-19T11:38:28;94242.31;;;19.99;38.10
42705;BME280;28342;42.594;23.414;2022-09-19T11:46:29;94243.78;;;20.37;36.81
42705;BME280;28342;42.594;23.414;2022-09-19T12:00:21;94224.66;;;20.53;35.21
42705;BME280;28342;42.594;23.414;2022-09-19T12:03:30;94229.59;;;20.47;34.94
42705;BME280;28342;42.594;23.414;2022-09-19T12:06:25;94230.81;;;20.53;34.87
42705;BME280;28342;42.594;23.414;2022-09-19T12:11:51;94219.66;;;20.55;34.15
42705;BME280;28342;42.594;23.414;2022-09-19T12:16:52;94215.50;;;20.72;34.65
42705;BME280;28342;42.594;23.414;2022-09-19T12:19:23;94214.03;;;20.88;32.61
42705;BME280;28342;42.594;23.414;2022-09-19T12:21:55;94192.47;;;20.85;34.09
42705;BME280;28342;42.594;23.414;2022-09-19T12:24:27;94186.31;;;20.95;33.14
42705;BME280;28342;42.594;23.414;2022-09-19T12:30:02;94181.06;;;21.31;33.01
42705;BME280;28342;42.594;23.414;2022-09-19T12:32:58;94188.78;;;21.57;34.26
42705;BME280;28342;42.594;23.414;2022-09-19T12:35:41;94184.19;;;21.68;32.67
42705;BME280;28342;42.594;23.414;2022-09-19T12:38:21;94181.09;;;21.77;32.32
42705;BME280;28342;42.594;23.414;2022-09-19T12:41:14;94186.50;;;21.81;31.13
42705;BME280;28342;42.594;23.414;2022-09-19T12:47:00;94182.63;;;21.89;33.89
42705;BME280;28342;42.594;23.414;2022-09-19T12:49:22;94169.53;;;21.84;31.81
42705;BME280;28342;42.594;23.414;2022-09-19T12:52:04;94179.53;;;21.87;30.52
42705;BME280;28342;42.594;23.414;2022-09-19T12:54:54;94165.66;;;21.99;32.04
42705;BME280;28342;42.594;23.414;2022-09-19T12:57:32;94157.94;;;22.01;31.17
42705;BME280;28342;42.594;23.414;2022-09-19T13:00:07;94173.75;;;22.20;32.61
42705;BME280;28342;42.594;23.414;2022-09-19T13:02:44;94162.56;;;22.25;33.52
42705;BME280;28342;42.594;23.414;2022-09-19T13:05:17;94161.28;;;22.62;30.94
42705;BME280;28342;42.594;23.414;2022-09-19T13:13:30;94159.41;;;22.45;30.86
42705;BME280;28342;42.594;23.414;2022-09-19T13:15:59;94148.63;;;22.41;30.76
42705;BME280;28342;42.594;23.414;2022-09-19T13:18:28;94154.84;;;21.99;27.76
42705;BME280;28342;42.594;23.414;2022-09-19T13:21:17;94142.50;;;21.98;28.35
42705;BME280;28342;42.594;23.414;2022-09-19T13:24:03;94134.81;;;22.07;28.90
42705;BME280;28342;42.594;23.414;2022-09-19T13:26:32;94142.50;;;22.26;31.08
42705;BME280;28342;42.594;23.414;2022-09-19T13:29:01;94133.97;;;22.31;30.42
42705;BME280;28342;42.594;23.414;2022-09-19T13:37:00;94126.63;;;22.43;29.00
42705;BME280;28342;42.594;23.414;2022-09-19T13:39:44;94122.38;;;22.42;28.66
42705;BME280;28342;42.594;23.414;2022-09-19T13:42:18;94124.69;;;22.40;28.64
42705;BME280;28342;42.594;23.414;2022-09-19T13:44:56;94132.81;;;22.40;29.35
42705;BME280;28342;42.594;23.414;2022-09-19T13:47:27;94134.34;;;22.41;28.56
42705;BME280;28342;42.594;23.414;2022-09-19T13:52:45;94125.13;;;22.20;28.84
42705;BME280;28342;42.594;23.414;2022-09-19T13:57:37;94127.06;;;22.20;29.50
42705;BME280;28342;42.594;23.414;2022-09-19T14:00:26;94123.59;;;22.26;28.32
42705;BME280;28342;42.594;23.414;2022-09-19T14:03:27;94131.31;;;22.24;28.26
42705;BME280;28342;42.594;23.414;2022-09-19T14:08:48;94130.09;;;22.36;30.33
42705;BME280;28342;42.594;23.414;2022-09-19T14:11:31;94126.63;;;22.39;29.75
42705;BME280;28342;42.594;23.414;2022-09-19T14:13:57;94126.25;;;22.41;28.47
42705;BME280;28342;42.594;23.414;2022-09-19T14:16:31;94127.03;;;22.30;28.42
42705;BME280;28342;42.594;23.414;2022-09-19T14:19:02;94136.69;;;22.21;28.67
42705;BME280;28342;42.594;23.414;2022-09-19T14:24:19;94134.75;;;22.28;29.44
42705;BME280;28342;42.594;23.414;2022-09-19T14:27:06;94134.34;;;22.33;30.16
42705;BME280;28342;42.594;23.414;2022-09-19T14:35:32;94143.66;;;22.18;30.73
42705;BME280;28342;42.594;23.414;2022-09-19T14:38:17;94139.41;;;22.17;32.22
42705;BME280;28342;42.594;23.414;2022-09-19T14:40:57;94138.25;;;22.00;28.09
42705;BME280;28342;42.594;23.414;2022-09-19T14:44:23;94136.34;;;21.97;31.18
42705;BME280;28342;42.594;23.414;2022-09-19T14:46:43;94141.75;;;21.94;32.48
42705;BME280;28342;42.594;23.414;2022-09-19T14:49:24;94142.50;;;21.98;33.46
42705;BME280;28342;42.594;23.414;2022-09-19T14:56:57;94137.13;;;21.91;36.76
42705;BME280;28342;42.594;23.414;2022-09-19T14:59:25;94136.34;;;21.87;36.48
42705;BME280;28342;42.594;23.414;2022-09-19T15:01:53;94127.13;;;21.77;35.37
42705;BME280;28342;42.594;23.414;2022-09-19T15:04:21;94138.31;;;21.75;36.38
42705;BME280;28342;42.594;23.414;2022-09-19T15:06:57;94127.09;;;21.66;35.56
42705;BME280;28342;42.594;23.414;2022-09-19T15:09:28;94130.22;;;21.61;35.75
42705;BME280;28342;42.594;23.414;2022-09-19T15:11:56;94139.47;;;21.60;33.88
42705;BME280;28342;42.594;23.414;2022-09-19T15:14:25;94155.25;;;21.62;34.94
42705;BME280;28342;42.594;23.414;2022-09-19T15:17:34;94168.34;;;21.56;36.65
42705;BME280;28342;42.594;23.414;2022-09-19T15:22:32;94160.25;;;21.38;37.39
42705;BME280;28342;42.594;23.414;2022-09-19T15:27:48;94147.88;;;21.19;39.49
42705;BME280;28342;42.594;23.414;2022-09-19T15:30:21;94149.41;;;21.21;40.38
42705;BME280;28342;42.594;23.414;2022-09-19T15:32:50;94160.97;;;21.21;40.52
42705;BME280;28342;42.594;23.414;2022-09-19T15:35:19;94166.72;;;21.09;38.18
42705;BME280;28342;42.594;23.414;2022-09-19T15:37:46;94170.16;;;21.02;37.36
42705;BME280;28342;42.594;23.414;2022-09-19T15:40:23;94168.59;;;20.94;37.81
42705;BME280;28342;42.594;23.414;2022-09-19T15:42:50;94162.38;;;20.69;39.95
42705;BME280;28342;42.594;23.414;2022-09-19T15:45:37;94166.16;;;20.53;39.40